createdAt,value
2022-12-11T00:01:35.988Z,79.30
2022-12-11T00:04:04.492Z,87.50
2022-12-11T00:06:32.839Z,79.97
2022-12-11T00:09:02.317Z,78.55
2022-12-11T00:11:32.193Z,69.35
2022-12-11T00:14:00.739Z,64.43
2022-12-11T00:16:28.982Z,53.53
2022-12-11T00:18:57.353Z,62.63
2022-12-11T00:21:25.914Z,54.60
2022-12-11T00:23:54.844Z,48.25
2022-12-11T00:26:23.663Z,55.15
2022-12-11T00:28:57.066Z,44.65
2022-12-11T00:31:26.099Z,55.92
2022-12-11T00:33:54.424Z,52.60
2022-12-11T00:36:25.576Z,53.45
2022-12-11T00:38:54.705Z,60.05
2022-12-11T00:41:23.902Z,59.10
2022-12-11T00:43:54.172Z,63.70
2022-12-11T00:46:22.652Z,64.10
2022-12-11T00:48:51.073Z,62.50
2022-12-11T00:51:19.681Z,62.80
2022-12-11T00:53:48.521Z,65.22
2022-12-11T00:56:21.532Z,67.65
2022-12-11T00:58:50.986Z,69.30
2022-12-11T01:01:24.380Z,63.20
2022-12-11T01:03:54.545Z,71.30
2022-12-11T01:06:26.114Z,65.35
2022-12-11T01:09:09.465Z,64.72
2022-12-11T01:14:06.381Z,66.78
2022-12-11T01:16:37.176Z,69.25
2022-12-11T01:19:06.649Z,62.30
2022-12-11T01:21:34.913Z,61.45
2022-12-11T01:24:03.407Z,62.15
2022-12-11T01:26:32.062Z,67.13
2022-12-11T01:29:00.433Z,64.43
2022-12-11T01:31:28.982Z,65.40
2022-12-11T01:33:58.622Z,59.10
2022-12-11T01:36:27.164Z,62.05
2022-12-11T01:38:55.884Z,66.32
2022-12-11T01:41:24.491Z,60.35
2022-12-11T01:44:02.594Z,64.47
2022-12-11T01:46:33.407Z,66.82
2022-12-11T01:49:06.633Z,67.78
2022-12-11T01:51:38.376Z,62.80
2022-12-11T01:54:12.834Z,64.75
2022-12-11T01:56:44.210Z,63.28
2022-12-11T01:59:15.807Z,62.17
2022-12-11T02:01:51.464Z,69.00
2022-12-11T02:04:22.221Z,67.55
2022-12-11T02:06:53.046Z,65.20
2022-12-11T02:09:27.414Z,61.58
2022-12-11T02:12:04.650Z,67.70
2022-12-11T02:14:44.682Z,73.63
2022-12-11T02:17:17.100Z,59.38
2022-12-11T02:20:05.558Z,60.38
2022-12-11T02:22:55.541Z,61.33
2022-12-11T02:25:31.565Z,57.60
2022-12-11T02:28:20.499Z,53.92
2022-12-11T02:30:57.922Z,61.40
2022-12-11T02:33:34.769Z,55.63
2022-12-11T02:36:06.468Z,57.13
2022-12-11T02:38:41.558Z,53.30
2022-12-11T02:41:12.832Z,55.63
2022-12-11T02:43:45.659Z,45.65
2022-12-11T02:46:15.315Z,49.15
2022-12-11T02:48:45.229Z,48.95
2022-12-11T02:51:17.716Z,51.28
2022-12-11T02:53:47.890Z,49.30
2022-12-11T02:56:25.565Z,50.00
2022-12-11T02:59:00.907Z,45.90
2022-12-11T03:01:29.516Z,45.72
2022-12-11T03:03:59.362Z,47.63
2022-12-11T03:06:36.843Z,47.70
2022-12-11T03:09:06.670Z,51.10
2022-12-11T03:11:34.843Z,52.45
2022-12-11T03:14:05.109Z,45.63
2022-12-11T03:16:37.983Z,47.88
2022-12-11T03:19:17.160Z,43.05
2022-12-11T03:21:53.758Z,42.25
2022-12-11T03:24:27.535Z,45.95
2022-12-11T03:27:02.204Z,43.45
2022-12-11T03:29:38.942Z,42.97
2022-12-11T03:32:12.911Z,40.80
2022-12-11T03:34:48.072Z,39.35
2022-12-11T03:37:18.090Z,42.80
2022-12-11T03:39:52.490Z,41.67
2022-12-11T03:42:23.095Z,43.28
2022-12-11T03:44:55.980Z,42.17
2022-12-11T03:47:27.656Z,43.30
2022-12-11T03:49:59.694Z,43.35
2022-12-11T03:52:30.332Z,43.42
2022-12-11T03:55:04.306Z,44.95
2022-12-11T03:57:36.351Z,41.88
2022-12-11T04:00:07.827Z,48.03
2022-12-11T04:02:40.571Z,46.40
2022-12-11T04:05:11.040Z,45.63
2022-12-11T04:07:39.566Z,50.13
2022-12-11T04:10:08.353Z,45.08
2022-12-11T04:12:36.841Z,47.92
2022-12-11T04:15:06.872Z,45.63
2022-12-11T04:17:54.981Z,49.97
2022-12-11T04:20:41.051Z,51.67
2022-12-11T04:23:32.076Z,51.03
2022-12-11T04:26:07.031Z,45.80
2022-12-11T04:28:36.019Z,48.72
2022-12-11T04:31:06.285Z,52.00
2022-12-11T04:33:34.930Z,51.95
2022-12-11T04:36:04.423Z,56.97
2022-12-11T04:38:32.786Z,52.55
2022-12-11T04:41:01.436Z,54.20
2022-12-11T04:43:30.377Z,52.78
2022-12-11T04:46:08.984Z,51.28
2022-12-11T04:48:38.098Z,54.17
2022-12-11T04:51:07.884Z,49.60
2022-12-11T04:53:37.613Z,51.45
2022-12-11T04:56:08.282Z,47.20
2022-12-11T04:58:37.232Z,53.00
2022-12-11T05:01:10.252Z,49.35
2022-12-11T05:03:39.315Z,53.25
2022-12-11T05:06:09.573Z,47.17
2022-12-11T05:08:40.251Z,50.25
2022-12-11T05:11:11.250Z,45.10
2022-12-11T05:13:39.930Z,45.55
2022-12-11T05:16:13.528Z,46.08
2022-12-11T05:18:42.069Z,45.70
2022-12-11T05:21:15.853Z,48.47
2022-12-11T05:23:44.208Z,48.38
2022-12-11T05:26:16.018Z,46.67
2022-12-11T05:28:45.131Z,41.65
2022-12-11T05:31:19.970Z,43.42
2022-12-11T05:33:50.194Z,47.00
2022-12-11T05:36:21.966Z,47.40
2022-12-11T05:38:51.406Z,46.40
2022-12-11T05:41:22.092Z,49.78
2022-12-11T05:43:50.519Z,42.15
2022-12-11T05:46:23.465Z,40.83
2022-12-11T05:48:54.748Z,49.47
2022-12-11T05:51:24.152Z,44.80
2022-12-11T05:53:54.792Z,41.55
2022-12-11T05:56:27.243Z,47.33
2022-12-11T05:58:57.429Z,40.30
2022-12-11T06:01:31.271Z,39.67
2022-12-11T06:04:01.327Z,41.90
2022-12-11T06:06:30.034Z,42.17
2022-12-11T06:09:01.538Z,44.72
2022-12-11T06:11:32.966Z,40.78
2022-12-11T06:14:03.729Z,41.47
2022-12-11T06:16:34.132Z,46.47
2022-12-11T06:19:02.449Z,44.72
2022-12-11T06:21:33.245Z,42.97
2022-12-11T06:24:05.749Z,44.42
2022-12-11T06:26:34.501Z,38.85
2022-12-11T06:29:05.280Z,41.42
2022-12-11T06:31:38.929Z,43.67
2022-12-11T06:34:07.385Z,41.30
2022-12-11T06:36:35.910Z,43.22
2022-12-11T06:39:05.369Z,42.50
2022-12-11T06:41:33.591Z,46.40
2022-12-11T06:44:02.260Z,43.35
2022-12-11T06:46:30.744Z,39.78
2022-12-11T06:49:00.591Z,43.40
2022-12-11T06:51:28.903Z,39.47
2022-12-11T06:53:58.309Z,41.80
2022-12-11T06:56:27.295Z,43.17
2022-12-11T06:58:57.114Z,39.70
2022-12-11T07:01:27.713Z,41.45
2022-12-11T07:03:57.162Z,42.67
2022-12-11T07:06:29.037Z,43.00
2022-12-11T07:08:58.163Z,42.67
2022-12-11T07:11:26.402Z,42.65
2022-12-11T07:13:54.785Z,40.03
2022-12-11T07:16:23.148Z,40.70
2022-12-11T07:18:52.849Z,42.00
2022-12-11T07:21:21.979Z,42.38
2022-12-11T07:23:52.003Z,41.17
2022-12-11T07:26:23.015Z,39.58
2022-12-11T07:28:51.619Z,42.80
2022-12-11T07:31:23.165Z,43.58
2022-12-11T07:33:56.124Z,40.22
2022-12-11T07:36:25.085Z,43.20
2022-12-11T07:38:55.443Z,42.60
2022-12-11T07:41:24.807Z,46.33
2022-12-11T07:43:56.236Z,37.80
2022-12-11T07:46:27.928Z,39.08
2022-12-11T07:48:56.736Z,43.10
2022-12-11T07:51:32.341Z,43.17
2022-12-11T07:54:04.757Z,41.75
2022-12-11T07:56:34.592Z,40.90
2022-12-11T07:59:04.600Z,38.45
2022-12-11T08:01:35.675Z,40.05
2022-12-11T08:04:06.028Z,40.72
2022-12-11T08:06:36.799Z,37.83
2022-12-11T08:09:09.820Z,41.42
2022-12-11T08:11:38.429Z,39.78
2022-12-11T08:14:08.964Z,36.03
2022-12-11T08:16:39.140Z,35.67
2022-12-11T08:19:08.582Z,37.20
2022-12-11T08:21:37.983Z,36.17
2022-12-11T08:24:08.987Z,36.40
2022-12-11T08:26:38.107Z,34.97
2022-12-11T08:29:06.459Z,32.75
2022-12-11T08:31:35.275Z,36.35
2022-12-11T08:34:04.576Z,38.22
2022-12-11T08:36:33.286Z,40.80
2022-12-11T08:39:03.472Z,37.33
2022-12-11T08:41:33.490Z,40.80
2022-12-11T08:44:01.953Z,41.67
2022-12-11T08:46:33.106Z,36.92
2022-12-11T08:49:01.848Z,35.15
2022-12-11T08:51:31.830Z,33.25
2022-12-11T08:54:02.211Z,36.47
2022-12-11T08:56:32.757Z,37.15
2022-12-11T08:59:01.810Z,31.80
2022-12-11T09:01:30.651Z,38.28
2022-12-11T09:03:59.196Z,34.58
2022-12-11T09:06:30.196Z,33.65
2022-12-11T09:09:00.914Z,34.22
2022-12-11T09:11:33.655Z,32.83
2022-12-11T09:14:07.366Z,37.90
2022-12-11T09:16:40.082Z,37.03
2022-12-11T09:19:13.809Z,37.80
2022-12-11T09:21:43.291Z,32.72
2022-12-11T09:24:13.807Z,32.88
2022-12-11T09:26:43.932Z,38.25
2022-12-11T09:29:13.131Z,32.80
2022-12-11T09:31:41.827Z,33.78
2022-12-11T09:34:13.543Z,35.92
2022-12-11T09:36:45.287Z,35.05
2022-12-11T09:39:15.609Z,37.53
2022-12-11T09:41:56.595Z,38.75
2022-12-11T09:44:38.359Z,39.00
2022-12-11T09:47:23.316Z,36.75
2022-12-11T09:49:58.692Z,37.60
2022-12-11T09:52:36.074Z,38.08
2022-12-11T09:55:17.371Z,37.80
2022-12-11T09:57:57.960Z,33.70
2022-12-11T10:00:31.754Z,37.35
2022-12-11T10:03:32.310Z,37.25
2022-12-11T10:06:08.961Z,37.78
2022-12-11T10:08:47.411Z,36.50
2022-12-11T10:11:39.947Z,39.10
2022-12-11T10:14:19.738Z,40.75
2022-12-11T10:16:53.046Z,38.10
2022-12-11T10:19:27.676Z,36.83
2022-12-11T10:21:57.744Z,36.30
2022-12-11T10:25:09.571Z,35.90
2022-12-11T10:27:32.100Z,33.42
2022-12-11T10:30:15.878Z,30.45
2022-12-11T10:32:53.565Z,30.30
2022-12-11T10:35:34.107Z,33.78
2022-12-11T10:38:14.584Z,29.85
2022-12-11T10:40:47.225Z,29.90
2022-12-11T10:45:54.056Z,28.90
2022-12-11T10:48:23.605Z,32.75
2022-12-11T10:51:02.310Z,32.28
2022-12-11T10:53:31.401Z,29.65
2022-12-11T10:56:01.828Z,39.10
2022-12-11T10:58:34.369Z,30.50
2022-12-11T11:01:24.330Z,33.42
2022-12-11T11:03:59.773Z,32.03
2022-12-11T11:06:28.751Z,32.78
2022-12-11T11:09:00.081Z,30.58
2022-12-11T11:11:34.264Z,28.08
2022-12-11T11:14:11.806Z,27.83
2022-12-11T11:16:44.872Z,26.80
2022-12-11T11:19:24.667Z,30.88
2022-12-11T11:21:56.515Z,29.67
2022-12-11T11:24:33.104Z,34.13
2022-12-11T11:27:13.309Z,29.98
2022-12-11T11:29:45.057Z,28.33
2022-12-11T11:32:23.728Z,30.17
2022-12-11T11:34:52.024Z,30.95
2022-12-11T11:37:31.592Z,29.55
2022-12-11T11:40:09.482Z,32.25
2022-12-11T11:42:48.947Z,29.55
2022-12-11T11:45:24.546Z,30.40
2022-12-11T11:48:10.921Z,29.23
2022-12-11T11:50:46.994Z,29.80
2022-12-11T11:53:23.367Z,32.47
2022-12-11T11:56:04.074Z,32.80
2022-12-11T11:58:42.891Z,29.90
2022-12-11T12:01:17.344Z,31.52
2022-12-11T12:03:48.850Z,27.73
2022-12-11T12:06:32.466Z,29.10
2022-12-11T12:09:16.173Z,31.27
2022-12-11T12:11:53.495Z,33.13
2022-12-11T12:14:51.823Z,28.98
2022-12-11T12:17:27.855Z,33.13
2022-12-11T12:20:20.668Z,30.67
2022-12-11T12:23:26.046Z,29.17
2022-12-11T12:26:04.252Z,36.60
2022-12-11T12:28:45.110Z,32.95
2022-12-11T12:31:44.019Z,31.02
2022-12-11T12:34:26.168Z,34.00
2022-12-11T12:37:06.762Z,32.10
2022-12-11T12:39:46.619Z,30.15
2022-12-11T12:42:31.469Z,31.05
2022-12-11T12:45:04.762Z,29.20
2022-12-11T12:47:36.335Z,28.10
2022-12-11T12:50:11.564Z,31.85
2022-12-11T12:52:42.726Z,31.08
2022-12-11T12:55:24.121Z,32.42
2022-12-11T12:57:57.434Z,30.50
2022-12-11T13:00:34.396Z,29.33
2022-12-11T13:03:16.546Z,34.03
2022-12-11T13:05:56.031Z,30.73
2022-12-11T13:08:30.078Z,35.83
2022-12-11T13:11:06.355Z,38.67
2022-12-11T13:13:39.369Z,34.53
2022-12-11T13:16:25.465Z,38.70
2022-12-11T13:18:54.612Z,36.53
2022-12-11T13:21:32.659Z,36.45
2022-12-11T13:24:26.031Z,36.25
2022-12-11T13:26:54.901Z,34.92
2022-12-11T13:29:32.201Z,32.70
2022-12-11T13:32:03.568Z,35.22
2022-12-11T13:34:36.303Z,31.45
2022-12-11T13:39:38.644Z,41.30
2022-12-11T13:42:17.624Z,39.60
2022-12-11T13:44:50.320Z,38.88
2022-12-11T13:49:56.844Z,41.35
2022-12-11T13:52:28.589Z,41.80
2022-12-11T13:55:01.257Z,37.33
2022-12-11T13:59:59.455Z,39.20
2022-12-11T14:02:31.193Z,39.42
2022-12-11T14:05:03.141Z,39.97
2022-12-11T14:07:34.614Z,38.63
2022-12-11T14:10:10.686Z,46.67
2022-12-11T14:12:39.355Z,39.72
2022-12-11T14:15:14.318Z,44.13
2022-12-11T14:17:50.018Z,38.47
2022-12-11T14:20:23.940Z,40.83
2022-12-11T14:22:52.733Z,38.05
2022-12-11T14:25:26.206Z,38.42
2022-12-11T14:27:57.753Z,40.00
2022-12-11T14:30:28.814Z,36.78
2022-12-11T14:33:00.243Z,37.50
2022-12-11T14:35:38.725Z,38.47
2022-12-11T14:38:15.993Z,42.00
2022-12-11T14:40:51.083Z,42.78
2022-12-11T14:43:25.313Z,45.97
2022-12-11T14:46:00.470Z,39.70
2022-12-11T14:48:38.429Z,45.50
2022-12-11T14:51:13.378Z,45.75
2022-12-11T14:53:45.883Z,43.28
2022-12-11T14:56:22.229Z,42.33
2022-12-11T14:58:56.388Z,42.75
2022-12-11T15:01:28.171Z,42.17
2022-12-11T15:04:20.747Z,38.35
2022-12-11T15:06:51.570Z,48.72
2022-12-11T15:09:22.501Z,44.03
2022-12-11T15:11:54.346Z,45.35
2022-12-11T15:14:23.879Z,43.40
2022-12-11T15:16:54.982Z,44.15
2022-12-11T15:19:29.737Z,48.17
2022-12-11T15:22:04.842Z,47.15
2022-12-11T15:24:41.457Z,46.88
2022-12-11T15:27:26.906Z,48.17
2022-12-11T15:29:55.257Z,50.75
2022-12-11T15:32:25.104Z,47.72
2022-12-11T15:34:56.069Z,49.05
2022-12-11T15:37:26.876Z,48.97
2022-12-11T15:39:57.608Z,49.75
2022-12-11T15:42:31.474Z,50.22
2022-12-11T15:45:01.127Z,49.33
2022-12-11T15:47:32.401Z,46.75
2022-12-11T15:50:04.437Z,45.67
2022-12-11T15:52:34.596Z,45.28
2022-12-11T15:55:03.112Z,48.97
2022-12-11T15:57:33.135Z,50.28
2022-12-11T16:00:01.774Z,48.92
2022-12-11T16:02:33.503Z,46.72
2022-12-11T16:05:01.768Z,52.92
2022-12-11T16:07:30.222Z,53.92
2022-12-11T16:09:58.984Z,48.03
2022-12-11T16:12:27.269Z,50.03
2022-12-11T16:14:56.986Z,54.38
2022-12-11T16:17:25.766Z,53.58
2022-12-11T16:19:55.340Z,51.08
2022-12-11T16:22:23.943Z,53.10
2022-12-11T16:24:55.788Z,53.53
2022-12-11T16:27:24.829Z,55.22
2022-12-11T16:29:53.522Z,51.55
2022-12-11T16:32:23.834Z,50.17
2022-12-11T16:34:52.454Z,50.88
2022-12-11T16:37:20.685Z,57.03
2022-12-11T16:39:49.262Z,61.10
2022-12-11T16:42:17.721Z,61.03
2022-12-11T16:44:46.172Z,59.85
2022-12-11T16:47:14.499Z,55.28
2022-12-11T16:49:44.251Z,47.72
2022-12-11T16:52:15.330Z,51.35
2022-12-11T16:54:47.494Z,56.47
2022-12-11T16:57:16.177Z,57.33
2022-12-11T16:59:44.568Z,53.92
2022-12-11T17:02:13.133Z,59.92
2022-12-11T17:04:46.119Z,60.05
2022-12-11T17:07:17.124Z,57.30
2022-12-11T17:09:45.668Z,62.88
2022-12-11T17:12:14.042Z,62.47
2022-12-11T17:14:42.388Z,50.15
2022-12-11T17:17:10.623Z,50.03
2022-12-11T17:19:38.882Z,47.22
2022-12-11T17:22:09.333Z,43.78
2022-12-11T17:24:38.080Z,44.00
2022-12-11T17:27:06.698Z,41.72
2022-12-11T17:29:34.917Z,45.95
2022-12-11T17:32:03.697Z,45.35
2022-12-11T17:34:37.831Z,35.60
2022-12-11T17:37:08.361Z,41.67
2022-12-11T17:39:37.669Z,36.97
2022-12-11T17:42:06.347Z,40.55
2022-12-11T17:44:34.715Z,39.20
2022-12-11T17:47:09.171Z,40.85
2022-12-11T17:49:39.565Z,36.28
2022-12-11T17:52:09.531Z,35.25
2022-12-11T17:54:39.407Z,43.22
2022-12-11T17:57:07.658Z,42.28
2022-12-11T17:59:35.937Z,41.80
2022-12-11T18:02:04.497Z,44.60
2022-12-11T18:04:32.916Z,46.22
2022-12-11T18:07:01.552Z,41.80
2022-12-11T18:09:31.712Z,41.80
2022-12-11T18:12:01.541Z,42.55
2022-12-11T18:14:29.962Z,40.35
2022-12-11T18:16:58.323Z,40.88
2022-12-11T18:19:27.063Z,40.47
2022-12-11T18:21:56.722Z,35.65
2022-12-11T18:24:25.820Z,38.67
2022-12-11T18:26:56.438Z,37.70
2022-12-11T18:29:24.837Z,36.75
2022-12-11T18:31:53.444Z,39.03
2022-12-11T18:34:21.805Z,36.92
2022-12-11T18:36:50.132Z,38.88
2022-12-11T18:39:18.427Z,33.85
2022-12-11T18:41:58.406Z,35.03
2022-12-11T18:44:33.579Z,37.35
2022-12-11T18:47:02.100Z,36.20
2022-12-11T18:49:30.969Z,38.00
2022-12-11T18:51:59.349Z,34.20
2022-12-11T18:54:27.693Z,38.67
2022-12-11T18:56:56.436Z,36.95
2022-12-11T18:59:25.224Z,35.45
2022-12-11T19:01:55.500Z,41.58
2022-12-11T19:04:24.079Z,43.33
2022-12-11T19:06:52.777Z,46.28
2022-12-11T19:09:21.862Z,39.90
2022-12-11T19:11:50.488Z,39.75
2022-12-11T19:14:18.951Z,38.33
2022-12-11T19:16:47.568Z,34.83
2022-12-11T19:19:21.954Z,36.60
2022-12-11T19:21:51.639Z,43.30
2022-12-11T19:24:23.498Z,37.35
2022-12-11T19:26:52.843Z,39.03
2022-12-11T19:29:25.069Z,35.85
2022-12-11T19:31:55.713Z,35.28
2022-12-11T19:34:26.763Z,39.33
2022-12-11T19:36:56.405Z,37.10
2022-12-11T19:39:24.938Z,43.65
2022-12-11T19:41:54.562Z,51.72
2022-12-11T19:44:22.857Z,43.17
2022-12-11T19:46:51.209Z,37.90
2022-12-11T19:49:19.869Z,41.08
2022-12-11T19:51:49.702Z,37.35
2022-12-11T19:54:19.603Z,34.47
2022-12-11T19:56:48.205Z,37.03
2022-12-11T19:59:18.066Z,34.20
2022-12-11T20:01:48.016Z,35.38
2022-12-11T20:04:18.560Z,36.00
2022-12-11T20:06:48.986Z,32.85
2022-12-11T20:09:18.384Z,33.42
2022-12-11T20:11:48.715Z,34.45
2022-12-11T20:14:23.997Z,36.83
2022-12-11T20:17:12.805Z,38.38
2022-12-11T20:19:42.147Z,37.92
2022-12-11T20:22:12.296Z,37.03
2022-12-11T20:24:40.788Z,38.17
2022-12-11T20:27:12.354Z,36.33
2022-12-11T20:29:40.806Z,35.60
2022-12-11T20:32:11.472Z,35.78
2022-12-11T20:34:40.281Z,35.88
2022-12-11T20:37:09.045Z,34.05
2022-12-11T20:39:39.655Z,38.60
2022-12-11T20:42:11.695Z,41.13
2022-12-11T20:44:44.164Z,35.65
2022-12-11T20:47:19.558Z,39.05
2022-12-11T20:49:48.686Z,39.30
2022-12-11T20:52:18.037Z,37.83
2022-12-11T20:54:47.916Z,39.05
2022-12-11T20:57:16.604Z,38.05
2022-12-11T20:59:46.466Z,37.92
2022-12-11T21:02:15.669Z,37.05
2022-12-11T21:04:45.270Z,39.50
2022-12-11T21:07:13.994Z,37.17
2022-12-11T21:09:42.463Z,34.50
2022-12-11T21:12:12.451Z,40.20
2022-12-11T21:14:40.843Z,38.78
2022-12-11T21:17:10.013Z,37.40
2022-12-11T21:19:40.352Z,38.45
2022-12-11T21:22:08.816Z,37.72
2022-12-11T21:24:37.142Z,38.08
2022-12-11T21:27:05.908Z,37.92
2022-12-11T21:29:36.742Z,36.83
2022-12-11T21:32:06.172Z,34.47
2022-12-11T21:34:34.646Z,34.13
2022-12-11T21:37:04.933Z,37.90
2022-12-11T21:39:39.196Z,32.33
2022-12-11T21:42:08.100Z,31.17
2022-12-11T21:45:31.516Z,31.85
2022-12-11T21:47:27.847Z,30.83
2022-12-11T21:49:56.568Z,32.67
2022-12-11T21:52:25.038Z,34.10
2022-12-11T21:54:53.560Z,31.67
2022-12-11T21:57:26.319Z,30.63
2022-12-11T21:59:56.911Z,31.23
2022-12-11T22:02:25.380Z,32.25
2022-12-11T22:04:53.955Z,31.48
2022-12-11T22:07:23.599Z,26.38
2022-12-11T22:09:52.400Z,29.27
2022-12-11T22:12:25.406Z,30.00
2022-12-11T22:14:53.878Z,29.90
2022-12-11T22:17:24.217Z,27.00
2022-12-11T22:19:53.800Z,37.63
2022-12-11T22:22:22.385Z,28.67
2022-12-11T22:24:51.012Z,28.38
2022-12-11T22:27:23.593Z,29.15
2022-12-11T22:29:52.276Z,66.50
2022-12-11T22:32:20.520Z,30.63
2022-12-11T22:34:50.091Z,33.30
2022-12-11T22:37:18.431Z,30.63
2022-12-11T22:39:47.074Z,34.80
2022-12-11T22:42:15.627Z,32.70
2022-12-11T22:44:47.845Z,46.55
2022-12-11T22:49:45.751Z,26.95
2022-12-11T22:52:15.620Z,23.98
2022-12-11T22:54:44.638Z,29.08
2022-12-11T22:57:14.497Z,28.00
2022-12-11T22:59:43.466Z,22.75
2022-12-11T23:02:11.849Z,24.73
2022-12-11T23:04:40.248Z,25.02
2022-12-11T23:07:08.904Z,25.75
2022-12-11T23:09:38.766Z,25.23
2022-12-11T23:12:08.080Z,25.50
2022-12-11T23:14:36.763Z,24.42
2022-12-11T23:17:05.442Z,24.83
2022-12-11T23:19:35.722Z,22.17
2022-12-11T23:22:05.380Z,22.25
2022-12-11T23:24:33.933Z,23.48
2022-12-11T23:27:04.151Z,25.10
2022-12-11T23:29:33.167Z,26.92
2022-12-11T23:32:01.735Z,24.20
2022-12-11T23:34:30.679Z,23.98
2022-12-11T23:36:59.207Z,22.77
2022-12-11T23:39:27.472Z,27.88
2022-12-11T23:41:56.155Z,23.25
2022-12-11T23:44:25.826Z,24.05
2022-12-11T23:46:54.339Z,23.10
2022-12-11T23:49:23.003Z,24.15
2022-12-11T23:51:51.482Z,24.08
2022-12-11T23:54:20.084Z,30.95
2022-12-11T23:56:48.659Z,24.73
2022-12-11T23:59:17.093Z,24.23
